Time;durP1;ratioP1;P1;durP2;ratioP2;P2;SDS_P1;SDS_P2;PMS_P1;PMS_P2;Temp;Humidity;BMP_temperature;BMP_pressure;BME280_temperature;BME280_humidity;BME280_pressure;Samples;Min_cycle;Max_cycle;Signal;HPM_P1;HPM_P2
2023/10/02 00:02:05;;;;;;;11.00;7.90;;;;;;;10.57;89.18;101345.04;106151;1259;96732;-81
2023/10/02 00:04:51;;;;;;;13.60;8.10;;;;;;;10.59;89.28;101342.05;106205;1257;96510;-82
2023/10/02 00:07:38;;;;;;;14.70;8.30;;;;;;;10.58;88.96;101343.36;106152;1259;100090;-82
2023/10/02 00:10:24;;;;;;;12.90;8.10;;;;;;;10.57;88.81;101343.29;106169;1259;99279;-81
2023/10/02 00:13:10;;;;;;;16.40;8.20;;;;;;;10.57;89.07;101340.77;106213;1256;97720;-82
2023/10/02 00:15:55;;;;;;;12.20;7.50;;;;;;;10.58;88.85;101340.39;106198;1262;97536;-81
2023/10/02 00:18:41;;;;;;;14.90;7.90;;;;;;;10.57;88.87;101342.79;106212;1256;96582;-80
2023/10/02 00:21:27;;;;;;;11.30;7.50;;;;;;;10.56;89.14;101342.52;106258;1259;100034;-81
2023/10/02 00:24:13;;;;;;;12.50;7.90;;;;;;;10.57;89.03;101344.70;106185;1256;99697;-82
2023/10/02 00:27:02;;;;;;;13.10;8.30;;;;;;;10.60;89.22;101347.44;106176;1256;98977;-81
2023/10/02 00:29:57;;;;;;;19.30;8.80;;;;;;;10.64;89.88;101349.51;106083;1256;96700;-81
2023/10/02 00:32:46;;;;;;;11.30;8.10;;;;;;;10.68;90.47;101347.56;106225;1256;96609;-81
2023/10/02 00:35:49;;;;;;;15.00;9.30;;;;;;;10.73;90.67;101345.92;106115;1263;100020;-81
2023/10/02 00:38:36;;;;;;;11.70;7.60;;;;;;;10.78;91.28;101339.81;106331;1256;100553;-81
2023/10/02 00:41:21;;;;;;;15.00;9.10;;;;;;;10.83;91.38;101336.96;106234;1260;99051;-81
2023/10/02 00:44:07;;;;;;;10.70;7.90;;;;;;;10.88;91.64;101336.74;106203;1259;96689;-81
2023/10/02 00:46:53;;;;;;;12.50;8.60;;;;;;;10.93;91.94;101337.88;106071;1256;97016;-81
2023/10/02 00:49:39;;;;;;;12.10;8.10;;;;;;;10.97;92.03;101337.43;106285;1256;101265;-81
2023/10/02 00:52:26;;;;;;;11.70;7.40;;;;;;;10.99;92.08;101335.05;106081;1256;99247;-82
2023/10/02 00:55:14;;;;;;;10.50;7.70;;;;;;;10.99;91.83;101333.70;106070;1256;97798;-81
2023/10/02 00:58:02;;;;;;;13.40;8.60;;;;;;;11.00;92.32;101331.50;105939;1263;96607;-81
2023/10/02 01:00:50;;;;;;;17.20;9.80;;;;;;;11.03;92.81;101339.52;106094;1256;97568;-81
2023/10/02 01:04:07;;;;;;;17.70;9.80;;;;;;;11.07;93.32;101341.25;106055;1260;101274;-80
2023/10/02 01:10:07;;;;;;;12.80;7.70;;;;;;;11.13;93.26;101345.89;105771;1259;99036;-81
2023/10/02 01:12:59;;;;;;;14.40;9.40;;;;;;;11.14;93.35;101344.05;106027;1255;96559;-80
2023/10/02 01:15:46;;;;;;;15.80;9.80;;;;;;;11.17;93.95;101348.17;106043;1256;97118;-81
2023/10/02 01:18:33;;;;;;;14.40;8.80;;;;;;;11.21;94.23;101347.52;106161;1256;101191;-81
2023/10/02 01:21:24;;;;;;;15.50;9.70;;;;;;;11.24;94.31;101344.45;106177;1256;99992;-81
2023/10/02 01:24:16;;;;;;;;;;;;;;;11.28;94.80;101345.83;106090;1261;97731;-81
2023/10/02 01:27:03;;;;;;;15.90;9.60;;;;;;;11.29;95.10;101344.93;106159;1256;96613;-82
2023/10/02 01:30:14;;;;;;;11.00;7.60;;;;;;;11.33;95.45;101347.55;106139;1256;97129;-81
2023/10/02 01:36:03;;;;;;;11.90;7.00;;;;;;;11.38;94.82;101347.23;106001;1257;99205;-81
2023/10/02 01:38:54;;;;;;;12.50;7.30;;;;;;;11.37;94.82;101344.42;106097;1256;99018;-82
2023/10/02 01:41:52;;;;;;;16.40;7.90;;;;;;;11.37;94.82;101343.34;106034;1259;96617;-81
2023/10/02 01:44:54;;;;;;;14.70;9.40;;;;;;;11.37;95.04;101344.03;106190;1256;97891;-81
2023/10/02 01:47:41;;;;;;;12.80;7.40;;;;;;;11.37;95.17;101345.81;106189;1256;101211;-82
2023/10/02 01:50:30;;;;;;;14.80;9.10;;;;;;;11.39;95.11;101348.16;105803;1263;99180;-82
2023/10/02 01:53:31;;;;;;;14.30;8.70;;;;;;;11.41;95.56;101348.73;106081;1256;99600;-82
2023/10/02 01:56:19;;;;;;;17.70;9.60;;;;;;;11.45;96.04;101351.02;106212;1256;96606;-81
2023/10/02 01:59:11;;;;;;;14.50;9.20;;;;;;;11.49;96.17;101353.55;106057;1258;97219;-81
2023/10/02 02:02:12;;;;;;;14.30;9.30;;;;;;;11.53;96.23;101357.36;106142;1256;100809;-81
2023/10/02 02:04:58;;;;;;;15.00;10.40;;;;;;;11.58;96.41;101358.77;106145;1256;99632;-82
2023/10/02 02:07:44;;;;;;;17.30;10.60;;;;;;;11.63;96.91;101361.96;106173;1258;98627;-83
2023/10/02 02:10:32;;;;;;;17.30;10.60;;;;;;;11.67;96.89;101370.10;106152;1256;96575;-83
2023/10/02 02:13:19;;;;;;;16.40;9.80;;;;;;;11.71;97.38;101363.58;105915;1256;97065;-84
2023/10/02 02:16:07;;;;;;;11.80;8.10;;;;;;;11.73;97.37;101362.46;106184;1262;101322;-83
2023/10/02 02:18:55;;;;;;;13.70;9.00;;;;;;;11.75;97.29;101364.23;106037;1257;99949;-83
2023/10/02 02:21:41;;;;;;;19.10;11.30;;;;;;;11.78;97.21;101365.48;106337;1256;98964;-82
2023/10/02 02:24:34;;;;;;;23.80;11.30;;;;;;;11.81;97.39;101367.95;106239;1257;96514;-82
2023/10/02 02:27:20;;;;;;;16.50;10.90;;;;;;;11.84;97.73;101367.05;106077;1256;97842;-83
2023/10/02 02:30:10;;;;;;;17.70;10.60;;;;;;;11.87;97.76;101368.59;106133;1256;100088;-82
2023/10/02 02:32:56;;;;;;;19.70;10.50;;;;;;;11.89;97.81;101368.33;106127;1256;100432;-81
2023/10/02 02:35:44;;;;;;;17.40;11.10;;;;;;;11.91;97.66;101366.66;106137;1260;98749;-82
2023/10/02 02:38:29;;;;;;;18.10;10.70;;;;;;;11.93;98.02;101366.08;105942;1260;97382;-83
2023/10/02 02:41:18;;;;;;;17.80;9.60;;;;;;;11.95;97.97;101357.64;106021;1260;97186;-82
2023/10/02 02:44:04;;;;;;;20.90;11.00;;;;;;;11.96;97.77;101359.95;106393;1258;101328;-82
2023/10/02 02:46:53;;;;;;;19.20;10.00;;;;;;;11.99;97.89;101360.73;106210;1260;100341;-82
2023/10/02 02:49:58;;;;;;;14.50;10.10;;;;;;;12.01;98.10;101363.09;106157;1256;97714;-82
2023/10/02 02:53:12;;;;;;;16.80;9.80;;;;;;;12.04;98.04;101367.45;106183;1256;97121;-81
2023/10/02 02:56:18;;;;;;;14.50;9.30;;;;;;;12.06;97.89;101363.05;106053;1256;96975;-81
2023/10/02 02:59:03;;;;;;;14.00;9.50;;;;;;;12.08;97.92;101361.53;106147;1262;100062;-82
2023/10/02 03:01:49;;;;;;;13.30;9.10;;;;;;;12.11;97.95;101356.56;106215;1256;100152;-82
2023/10/02 03:04:38;;;;;;;18.40;10.50;;;;;;;12.15;97.97;101359.92;106074;1262;97810;-81
2023/10/02 03:07:30;;;;;;;13.00;9.40;;;;;;;12.16;98.09;101362.22;106054;1256;96655;-82
2023/10/02 03:10:19;;;;;;;13.30;8.60;;;;;;;12.17;98.21;101361.28;106097;1260;97036;-82
2023/10/02 03:13:08;;;;;;;9.80;7.90;;;;;;;12.15;97.90;101362.87;106138;1256;100059;-83
2023/10/02 03:15:54;;;;;;;13.60;8.00;;;;;;;12.12;97.52;101364.33;106065;1261;99100;-83
2023/10/02 03:18:48;;;;;;;13.80;7.90;;;;;;;12.08;97.20;101364.42;106226;1260;97767;-84
2023/10/02 03:21:38;;;;;;;11.50;7.50;;;;;;;12.05;97.12;101367.55;106164;1257;96518;-83
2023/10/02 03:24:24;;;;;;;12.90;8.60;;;;;;;12.03;97.10;101364.70;106096;1256;96571;-84
2023/10/02 03:27:09;;;;;;;19.00;10.20;;;;;;;12.02;97.06;101357.86;106141;1256;100028;-84
2023/10/02 03:29:55;;;;;;;20.90;10.10;;;;;;;12.01;96.69;101356.55;106109;1260;100669;-81
2023/10/02 03:32:45;;;;;;;19.00;10.20;;;;;;;11.99;96.55;101354.09;105977;1256;99062;-81
2023/10/02 03:35:39;;;;;;;16.60;10.10;;;;;;;11.96;96.60;101351.16;106185;1256;97511;-80
2023/10/02 03:38:26;;;;;;;15.50;9.50;;;;;;;11.95;96.64;101351.16;106156;1256;97133;-82
2023/10/02 03:41:13;;;;;;;14.60;8.70;;;;;;;11.93;96.69;101352.98;106048;1256;101217;-82
2023/10/02 03:43:58;;;;;;;16.40;9.20;;;;;;;11.92;96.67;101350.52;106028;1260;99125;-82
2023/10/02 03:46:44;;;;;;;15.00;9.60;;;;;;;11.91;96.65;101349.98;106285;1262;97843;-81
2023/10/02 03:49:32;;;;;;;16.90;8.80;;;;;;;11.89;96.70;101348.81;106159;1256;96523;-81
2023/10/02 03:52:18;;;;;;;16.80;9.30;;;;;;;11.87;96.78;101345.92;106204;1256;97116;-81
2023/10/02 03:55:17;;;;;;;16.90;9.30;;;;;;;11.87;96.82;101345.64;106227;1257;100036;-81
2023/10/02 03:58:03;;;;;;;15.90;9.30;;;;;;;11.87;97.29;101346.02;106174;1256;99069;-81
2023/10/02 04:00:51;;;;;;;13.90;9.20;;;;;;;11.87;97.25;101343.19;106075;1256;98053;-83
2023/10/02 04:03:53;;;;;;;21.80;9.40;;;;;;;11.87;97.20;101339.55;106148;1262;97524;-82
2023/10/02 04:06:42;;;;;;;14.70;9.10;;;;;;;11.88;97.71;101341.55;106099;1256;96357;-82
2023/10/02 04:09:27;;;;;;;14.60;9.10;;;;;;;11.89;97.70;101342.04;106120;1257;100050;-82
2023/10/02 04:12:13;;;;;;;12.60;8.80;;;;;;;11.91;97.61;101344.15;106229;1256;107665;-84
2023/10/02 04:14:59;;;;;;;15.40;9.30;;;;;;;11.92;97.94;101344.13;106001;1262;99100;-82
2023/10/02 04:17:49;;;;;;;16.00;8.90;;;;;;;11.95;98.20;101340.83;105955;1256;96900;-82
2023/10/02 04:20:36;;;;;;;15.20;9.10;;;;;;;11.96;98.37;101341.79;106258;1256;97071;-84
2023/10/02 04:23:23;;;;;;;12.40;9.10;;;;;;;11.97;98.40;101347.98;106221;1262;100157;-83
2023/10/02 04:26:22;;;;;;;16.30;9.40;;;;;;;11.99;98.27;101351.90;106282;1260;99565;-82
2023/10/02 04:32:14;;;;;;;12.50;7.90;;;;;;;12.04;98.47;101351.38;106151;1260;96601;-81
2023/10/02 04:35:02;;;;;;;15.70;8.90;;;;;;;12.06;98.35;101352.23;106233;1260;97134;-82
2023/10/02 04:37:48;;;;;;;10.30;8.50;;;;;;;12.07;98.21;101353.70;106029;1256;100009;-81
2023/10/02 04:40:44;;;;;;;13.10;6.90;;;;;;;12.07;98.21;101352.23;106154;1256;108395;-81
2023/10/02 04:43:34;;;;;;;13.50;7.00;;;;;;;12.06;98.20;101354.31;106196;1260;98967;-83
2023/10/02 04:46:20;;;;;;;8.80;6.50;;;;;;;12.05;98.22;101354.02;106037;1256;96683;-83
2023/10/02 04:49:06;;;;;;;8.70;6.30;;;;;;;12.05;98.00;101351.10;106224;1256;97161;-81
2023/10/02 04:51:53;;;;;;;14.80;6.90;;;;;;;12.03;97.81;101354.30;106199;1256;100316;-82
2023/10/02 04:54:38;;;;;;;6.50;5.70;;;;;;;12.02;97.57;101353.92;106139;1256;99163;-83
2023/10/02 04:57:24;;;;;;;12.20;6.30;;;;;;;11.99;97.41;101358.21;106265;1259;99058;-84
2023/10/02 05:00:27;;;;;;;8.70;5.50;;;;;;;11.96;97.56;101358.83;106036;1261;96674;-81
2023/10/02 05:03:21;;;;;;;9.60;6.50;;;;;;;11.95;97.79;101358.98;106174;1256;97032;-82
2023/10/02 05:06:07;;;;;;;11.50;6.20;;;;;;;11.96;97.91;101363.03;106174;1262;100072;-80
2023/10/02 05:11:52;;;;;;;11.40;7.70;;;;;;;12.02;98.31;101358.52;106263;1256;98946;-81
2023/10/02 05:15:07;;;;;;;15.80;9.30;;;;;;;12.05;98.91;101355.98;106115;1258;98160;-81
2023/10/02 05:17:47;;;;;;;18.40;10.00;;;;;;;12.09;99.21;101360.60;106320;1256;97158;-82
2023/10/02 05:20:38;;;;;;;14.30;10.90;;;;;;;12.13;99.20;101364.05;106077;1260;99992;-81
2023/10/02 05:23:23;;;;;;;14.30;8.80;;;;;;;12.17;99.03;101362.86;106082;1256;99136;-80
2023/10/02 05:26:29;;;;;;;10.40;8.00;;;;;;;12.21;99.57;101369.05;106178;1262;97807;-83
2023/10/02 05:29:36;;;;;;;11.60;7.00;;;;;;;12.24;99.65;101375.84;106244;1261;95920;-82
2023/10/02 05:32:24;;;;;;;14.00;7.20;;;;;;;12.27;99.78;101378.00;106136;1260;96647;-83
2023/10/02 05:37:58;;;;;;;9.40;6.60;;;;;;;12.32;100.00;101387.94;106323;1256;99218;-82
2023/10/02 05:40:47;;;;;;;11.90;7.30;;;;;;;12.34;100.00;101388.02;106205;1258;97766;-82
2023/10/02 05:43:47;;;;;;;10.60;7.20;;;;;;;12.36;100.00;101393.91;106266;1262;96509;-81
2023/10/02 05:46:55;;;;;;;13.20;7.30;;;;;;;12.37;100.00;101398.58;106285;1260;97070;-81
2023/10/02 05:49:53;;;;;;;10.80;6.10;;;;;;;12.39;100.00;101399.77;106323;1256;101270;-81
2023/10/02 05:52:48;;;;;;;11.40;6.60;;;;;;;12.42;100.00;101398.61;106221;1256;99135;-82
2023/10/02 05:58:43;;;;;;;10.90;6.40;;;;;;;12.47;100.00;101393.04;106186;1256;96554;-82
2023/10/02 06:01:34;;;;;;;12.00;7.50;;;;;;;12.50;100.00;101393.55;106275;1262;96641;-82
2023/10/02 06:04:23;;;;;;;10.10;7.60;;;;;;;12.53;100.00;101394.25;106052;1256;100139;-83
2023/10/02 06:07:12;;;;;;;14.90;7.80;;;;;;;12.57;100.00;101395.40;106290;1257;99244;-82
2023/10/02 06:10:00;;;;;;;11.70;7.90;;;;;;;12.61;100.00;101397.25;106149;1262;97831;-83
2023/10/02 06:12:47;;;;;;;12.90;8.80;;;;;;;12.65;100.00;101394.10;106105;1257;97599;-82
2023/10/02 06:15:43;;;;;;;13.80;8.80;;;;;;;12.70;100.00;101390.99;106282;1256;96705;-83
2023/10/02 06:18:29;;;;;;;15.30;9.70;;;;;;;12.75;100.00;101389.23;106245;1262;109852;-83
2023/10/02 06:21:14;;;;;;;21.20;12.20;;;;;;;12.80;100.00;101392.96;106264;1256;100450;-81
2023/10/02 06:23:59;;;;;;;18.60;10.70;;;;;;;12.85;100.00;101396.10;106179;1260;98648;-82
2023/10/02 06:26:49;;;;;;;20.70;10.60;;;;;;;12.90;100.00;101395.36;106213;1261;96724;-84
2023/10/02 06:29:35;;;;;;;19.90;11.60;;;;;;;12.95;100.00;101397.25;105998;1261;98033;-81
2023/10/02 06:32:22;;;;;;;23.00;11.60;;;;;;;13.00;100.00;101397.73;106330;1257;101429;-81
2023/10/02 06:35:08;;;;;;;16.60;10.80;;;;;;;13.04;100.00;101401.66;106145;1260;99724;-82
2023/10/02 06:37:54;;;;;;;19.50;11.00;;;;;;;13.10;100.00;101403.31;105972;1256;97862;-82
2023/10/02 06:40:52;;;;;;;22.60;12.40;;;;;;;13.17;100.00;101407.38;106231;1256;96713;-82
2023/10/02 06:43:37;;;;;;;19.30;11.70;;;;;;;13.23;100.00;101412.01;105980;1256;97068;-82
2023/10/02 06:46:23;;;;;;;23.60;12.00;;;;;;;13.29;100.00;101410.72;106185;1257;99979;-82
2023/10/02 06:49:15;;;;;;;19.10;11.90;;;;;;;13.35;100.00;101408.20;106086;1257;99163;-83
2023/10/02 06:52:12;;;;;;;;;;;;;;;13.41;100.00;101412.68;106247;1262;98978;-82
2023/10/02 06:54:58;;;;;;;17.30;11.20;;;;;;;13.47;100.00;101418.90;106272;1261;97200;-82
2023/10/02 06:57:49;;;;;;;17.20;10.60;;;;;;;13.55;100.00;101419.08;106266;1262;97067;-81
2023/10/02 07:00:54;;;;;;;18.80;8.90;;;;;;;13.62;100.00;101416.58;106229;1256;100226;-81
2023/10/02 07:03:40;;;;;;;18.90;10.30;;;;;;;13.69;100.00;101414.02;106179;1262;99126;-82
2023/10/02 07:06:27;;;;;;;17.40;9.50;;;;;;;13.77;100.00;101406.83;106131;1256;97777;-82
2023/10/02 07:09:14;;;;;;;18.00;8.20;;;;;;;13.82;100.00;101401.06;106449;1260;95922;-88
2023/10/02 07:12:08;;;;;;;12.20;7.40;;;;;;;13.89;100.00;101399.38;106827;1256;96510;-89
2023/10/02 07:15:10;;;;;;;14.30;7.40;;;;;;;13.95;100.00;101399.30;106710;1256;101386;-89
2023/10/02 07:18:01;;;;;;;15.40;7.50;;;;;;;14.02;100.00;101400.38;106581;1261;99198;-88
2023/10/02 07:20:52;;;;;;;14.20;8.00;;;;;;;14.11;100.00;101400.65;106413;1260;99080;-89
2023/10/02 07:23:38;;;;;;;16.40;8.20;;;;;;;14.19;100.00;101405.88;106391;1263;96598;-87
2023/10/02 07:29:37;;;;;;;14.00;7.60;;;;;;;14.38;100.00;101404.74;106601;1256;102162;-88
2023/10/02 07:32:29;;;;;;;12.30;8.00;;;;;;;14.46;100.00;101402.92;106493;1260;99206;-90
2023/10/02 07:38:30;;;;;;;15.70;8.20;;;;;;;14.61;100.00;101401.21;106632;1262;96550;-90
2023/10/02 07:41:23;;;;;;;14.90;7.00;;;;;;;14.70;99.83;101397.80;106408;1261;96625;-84
2023/10/02 07:44:09;;;;;;;11.20;6.80;;;;;;;14.78;99.44;101389.45;105890;1262;99988;-86
2023/10/02 07:46:55;;;;;;;16.10;7.40;;;;;;;14.85;99.38;101388.51;106240;1263;101530;-85
2023/10/02 07:49:44;;;;;;;14.50;7.00;;;;;;;14.91;98.91;101390.91;106034;1262;97792;-85
2023/10/02 07:52:30;;;;;;;11.60;6.90;;;;;;;14.98;99.05;101392.22;105878;1261;96761;-84
2023/10/02 07:55:15;;;;;;;14.50;6.60;;;;;;;15.07;98.88;101395.69;105796;1262;96941;-83
2023/10/02 07:58:01;;;;;;;17.00;7.40;;;;;;;15.15;97.94;101393.89;105791;1262;101344;-84
2023/10/02 08:00:49;;;;;;;10.40;6.70;;;;;;;15.24;97.69;101396.39;105692;1267;99167;-82
2023/10/02 08:03:43;;;;;;;15.70;7.10;;;;;;;15.31;97.44;101394.98;105713;1262;97775;-80
2023/10/02 08:12:30;;;;;;;11.90;5.70;;;;;;;15.57;96.50;101394.59;105847;1264;101379;-83
2023/10/02 08:15:26;;;;;;;13.70;5.50;;;;;;;15.65;95.85;101396.95;105724;1262;99907;-82
2023/10/02 08:18:18;;;;;;;13.10;5.30;;;;;;;15.72;95.65;101400.11;105813;1266;99025;-83
2023/10/02 08:21:04;;;;;;;11.10;5.20;;;;;;;15.78;95.09;101407.07;105825;1264;96696;-83
2023/10/02 08:23:55;;;;;;;12.00;5.80;;;;;;;15.85;94.83;101408.59;105840;1266;97165;-82
2023/10/02 08:26:45;;;;;;;9.90;5.30;;;;;;;15.94;94.56;101406.92;105731;1268;100131;-81
2023/10/02 08:29:33;;;;;;;14.30;5.40;;;;;;;16.01;94.15;101402.92;105728;1265;100422;-82
2023/10/02 08:32:28;;;;;;;9.90;5.50;;;;;;;16.08;93.47;101406.58;105798;1262;97705;-82
2023/10/02 08:35:14;;;;;;;11.20;5.70;;;;;;;16.17;92.80;101407.51;105758;1263;97299;-84
2023/10/02 08:37:59;;;;;;;9.00;5.80;;;;;;;16.27;92.83;101408.82;105805;1260;97779;-83
2023/10/02 08:40:45;;;;;;;9.40;5.30;;;;;;;16.37;92.84;101409.09;105949;1264;99980;-82
2023/10/02 08:43:45;;;;;;;10.60;5.10;;;;;;;16.46;92.38;101406.95;105875;1263;99102;-82
2023/10/02 08:46:31;;;;;;;13.60;4.80;;;;;;;16.56;92.07;101405.44;105815;1260;98812;-84
2023/10/02 08:49:18;;;;;;;9.30;4.60;;;;;;;16.64;91.52;101398.69;105769;1267;96689;-81
2023/10/02 08:52:08;;;;;;;8.80;4.90;;;;;;;16.72;91.39;101397.82;105799;1260;97844;-81
2023/10/02 08:54:54;;;;;;;12.90;5.20;;;;;;;16.81;90.87;101401.23;105809;1264;101223;-83
2023/10/02 08:57:51;;;;;;;8.30;4.10;;;;;;;16.88;90.05;101398.23;105817;1260;99116;-82
2023/10/02 09:00:38;;;;;;;15.10;4.90;;;;;;;16.98;89.77;101395.86;105966;1261;97798;-81
2023/10/02 09:03:24;;;;;;;10.50;4.40;;;;;;;17.10;88.83;101392.44;105939;1260;96604;-81
2023/10/02 09:06:25;;;;;;;8.10;3.90;;;;;;;17.20;88.12;101393.14;105875;1260;96623;-81
2023/10/02 09:12:17;;;;;;;6.50;3.00;;;;;;;17.39;87.25;101384.02;105896;1264;99521;-83
2023/10/02 09:15:24;;;;;;;11.00;4.10;;;;;;;17.48;86.56;101380.33;105827;1260;97747;-82
2023/10/02 09:18:22;;;;;;;12.10;4.00;;;;;;;17.60;85.76;101382.02;105791;1260;96821;-81
2023/10/02 09:21:15;;;;;;;7.50;3.30;;;;;;;17.70;84.58;101380.73;106019;1263;96828;-83
2023/10/02 09:24:03;;;;;;;8.50;3.70;;;;;;;17.77;84.20;101382.80;105870;1261;100728;-81
2023/10/02 09:26:49;;;;;;;12.10;3.20;;;;;;;17.84;83.47;101380.19;105739;1260;99159;-83
2023/10/02 09:29:35;;;;;;;10.20;3.40;;;;;;;17.91;83.32;101378.89;105748;1260;98447;-83
2023/10/02 09:32:25;;;;;;;8.40;3.90;;;;;;;17.98;82.65;101381.95;105900;1260;96622;-81
2023/10/02 09:35:13;;;;;;;7.60;3.30;;;;;;;18.05;82.00;101379.00;105958;1259;97090;-81
2023/10/02 09:38:03;;;;;;;8.50;3.40;;;;;;;18.11;81.32;101374.33;105903;1262;101343;-82
2023/10/02 09:41:11;;;;;;;13.00;3.80;;;;;;;18.17;80.53;101371.63;105956;1260;99265;-83
2023/10/02 09:44:09;;;;;;;10.10;4.00;;;;;;;18.21;80.14;101370.14;106129;1261;98321;-83
2023/10/02 09:46:55;;;;;;;8.10;3.00;;;;;;;18.27;80.13;101369.59;106082;1263;96664;-82
2023/10/02 09:50:10;;;;;;;6.80;2.50;;;;;;;18.35;80.02;101374.06;106061;1260;97045;-84
2023/10/02 09:53:02;;;;;;;6.70;3.00;;;;;;;18.45;79.16;101375.98;106022;1260;101318;-81
2023/10/02 09:56:11;;;;;;;12.30;3.10;;;;;;;18.52;78.68;101373.55;106087;1263;99068;-82
2023/10/02 09:59:15;;;;;;;9.10;3.00;;;;;;;18.57;78.53;101369.90;105990;1261;99093;-83
2023/10/02 10:02:47;;;;;;;5.70;3.10;;;;;;;18.65;78.09;101367.91;106178;1261;96731;-83
2023/10/02 10:10:50;;;;;;;7.70;3.30;;;;;;;18.86;77.05;101358.42;105898;1262;100563;-83
2023/10/02 10:13:38;;;;;;;8.70;3.30;;;;;;;18.91;76.35;101355.40;105908;1261;97832;-89
2023/10/02 10:16:29;;;;;;;8.90;2.80;;;;;;;18.95;75.48;101345.92;105717;1260;96624;-85
2023/10/02 10:22:01;;;;;;;7.50;3.50;;;;;;;19.06;75.20;101353.98;105973;1260;100898;-85
2023/10/02 10:24:56;;;;;;;10.10;3.10;;;;;;;19.10;74.67;101350.55;108121;1259;100166;-84
2023/10/02 10:27:41;;;;;;;9.10;3.30;;;;;;;19.15;74.63;101345.98;108082;1259;99100;-84
2023/10/02 10:30:46;;;;;;;9.20;3.50;;;;;;;19.20;74.18;101348.05;107742;1260;96548;-84
2023/10/02 10:33:34;;;;;;;7.00;2.90;;;;;;;19.27;73.67;101350.73;108121;1259;94399;-84
2023/10/02 10:36:36;;;;;;;8.70;3.20;;;;;;;19.32;73.69;101350.68;107353;1261;101253;-84
2023/10/02 10:39:54;;;;;;;8.20;3.30;;;;;;;19.38;73.42;101349.39;105586;1259;100181;-84
2023/10/02 10:42:59;;;;;;;7.10;3.50;;;;;;;19.47;73.18;101353.61;105718;1264;98614;-83
2023/10/02 10:45:48;;;;;;;6.20;3.10;;;;;;;19.52;72.59;101349.70;105703;1264;96590;-83
2023/10/02 10:48:34;;;;;;;6.10;3.20;;;;;;;19.57;72.71;101345.08;105570;1259;96614;-83
2023/10/02 10:51:20;;;;;;;14.50;3.70;;;;;;;19.63;72.17;101341.44;105590;1263;100081;-84
2023/10/02 10:54:30;;;;;;;8.80;4.00;;;;;;;19.68;71.93;101333.40;105714;1265;99170;-85
2023/10/02 10:57:19;;;;;;;11.00;3.60;;;;;;;19.72;71.50;101329.89;105680;1262;97990;-84
2023/10/02 11:00:26;;;;;;;8.30;3.30;;;;;;;19.74;71.04;101319.55;105668;1264;98077;-84
2023/10/02 11:03:15;;;;;;;9.10;3.20;;;;;;;19.77;71.49;101317.39;105845;1263;98480;-85
2023/10/02 11:06:03;;;;;;;8.90;3.30;;;;;;;19.83;71.40;101310.86;105602;1261;102060;-83
2023/10/02 11:09:12;;;;;;;14.00;4.10;;;;;;;19.88;70.82;101309.79;105678;1260;99014;-83
2023/10/02 11:11:58;;;;;;;15.40;3.70;;;;;;;19.93;71.01;101311.55;105657;1260;99101;-84
2023/10/02 11:14:44;;;;;;;9.20;3.90;;;;;;;19.96;71.09;101309.14;105647;1265;98016;-84
2023/10/02 11:17:32;;;;;;;8.00;3.10;;;;;;;19.98;70.81;101305.92;105739;1261;98019;-84
2023/10/02 11:20:31;;;;;;;10.10;4.50;;;;;;;20.02;71.02;101305.00;105610;1260;101533;-85
2023/10/02 11:23:37;;;;;;;6.70;3.70;;;;;;;20.06;69.88;101307.83;105674;1262;99309;-84
2023/10/02 11:26:23;;;;;;;11.70;3.50;;;;;;;20.09;69.74;101306.05;105722;1265;98689;-85
2023/10/02 11:29:25;;;;;;;8.00;3.30;;;;;;;20.13;69.97;101311.48;105731;1261;97969;-84
2023/10/02 11:32:24;;;;;;;8.90;3.10;;;;;;;20.19;69.83;101313.42;105689;1263;98532;-85
2023/10/02 11:35:09;;;;;;;10.00;3.30;;;;;;;20.26;69.79;101309.69;105791;1260;101398;-83
2023/10/02 11:37:58;;;;;;;8.80;3.10;;;;;;;20.32;69.38;101306.04;105695;1264;99188;-85
2023/10/02 11:40:44;;;;;;;7.30;3.40;;;;;;;20.36;68.33;101306.47;105750;1265;97942;-84
2023/10/02 11:43:31;;;;;;;10.50;3.30;;;;;;;20.38;67.68;101304.77;105838;1264;97888;-84
2023/10/02 11:46:20;;;;;;;6.80;2.90;;;;;;;20.41;68.19;101296.80;106785;1260;97850;-83
2023/10/02 11:49:13;;;;;;;7.90;3.00;;;;;;;20.45;68.53;101298.11;106960;1260;101292;-84
2023/10/02 11:52:02;;;;;;;10.10;3.60;;;;;;;20.48;66.96;101294.70;106436;1260;100073;-87
2023/10/02 11:54:47;;;;;;;8.20;3.10;;;;;;;20.51;67.47;101296.55;105667;1263;98051;-88
2023/10/02 11:57:33;;;;;;;5.90;3.00;;;;;;;20.55;67.36;101290.98;106013;1264;146598;-81
2023/10/02 12:00:20;;;;;;;10.40;3.30;;;;;;;20.57;67.31;101290.02;105811;1260;98397;-84
2023/10/02 12:03:06;;;;;;;11.30;4.60;;;;;;;20.59;66.97;101284.23;106169;1260;102772;-90
2023/10/02 12:05:54;;;;;;;5.70;2.80;;;;;;;20.61;67.06;101280.43;106522;1260;100382;-91
2023/10/02 12:08:40;;;;;;;8.00;3.50;;;;;;;20.64;67.48;101275.77;106521;1260;99066;-91
2023/10/02 12:11:33;;;;;;;8.20;3.50;;;;;;;20.66;66.68;101271.23;107021;1260;98528;-92
2023/10/02 12:14:22;;;;;;;6.70;3.40;;;;;;;20.70;67.04;101263.05;107806;1260;97954;-91
2023/10/02 12:17:31;;;;;;;6.70;3.20;;;;;;;20.76;67.21;101262.31;106704;1263;102686;-89
2023/10/02 12:20:31;;;;;;;6.60;2.70;;;;;;;20.81;67.20;101258.82;106704;1263;100675;-87
2023/10/02 12:23:16;;;;;;;8.90;2.80;;;;;;;20.85;67.18;101254.14;106491;1260;97959;-88
2023/10/02 12:26:04;;;;;;;5.00;2.50;;;;;;;20.90;67.49;101257.20;106399;1260;97979;-89
2023/10/02 12:28:50;;;;;;;6.40;2.90;;;;;;;20.96;67.82;101256.29;106436;1260;95960;-90
2023/10/02 12:31:36;;;;;;;4.40;2.50;;;;;;;21.03;68.44;101257.13;106634;1261;103512;-89
2023/10/02 12:34:22;;;;;;;4.90;2.80;;;;;;;21.13;68.46;101260.33;106213;1260;100163;-82
2023/10/02 12:37:09;;;;;;;7.20;2.40;;;;;;;21.22;67.96;101261.52;106248;1260;98304;-83
2023/10/02 12:39:56;;;;;;;8.20;2.50;;;;;;;21.26;68.03;101262.40;106358;1263;97939;-82
2023/10/02 12:42:41;;;;;;;6.10;2.70;;;;;;;21.26;67.31;101260.35;106344;1261;98486;-83
2023/10/02 12:45:34;;;;;;;6.40;2.70;;;;;;;21.27;67.72;101257.91;106311;1261;101386;-81
2023/10/02 12:48:20;;;;;;;8.50;2.80;;;;;;;21.29;67.77;101251.66;106294;1260;99670;-83
2023/10/02 12:51:09;;;;;;;6.50;2.40;;;;;;;21.31;68.02;101247.92;106370;1262;97980;-82
2023/10/02 12:53:55;;;;;;;8.50;2.60;;;;;;;21.32;68.28;101246.86;106261;1264;97965;-82
2023/10/02 12:56:45;;;;;;;5.50;2.90;;;;;;;21.33;68.76;101246.37;106110;1260;98068;-82
2023/10/02 12:59:31;;;;;;;6.00;2.60;;;;;;;21.32;68.77;101247.45;106263;1261;101976;-82
2023/10/02 13:02:16;;;;;;;4.30;2.20;;;;;;;21.30;68.59;101244.56;106343;1260;99177;-82
2023/10/02 13:05:04;;;;;;;8.60;2.80;;;;;;;21.27;69.06;101244.66;106158;1259;97990;-82
2023/10/02 13:07:55;;;;;;;8.30;2.90;;;;;;;21.25;68.88;101246.59;106194;1259;97973;-82
2023/10/02 13:10:42;;;;;;;6.90;2.90;;;;;;;21.23;69.14;101240.02;106271;1264;99647;-82
2023/10/02 13:13:27;;;;;;;6.20;2.50;;;;;;;21.22;69.09;101234.48;106291;1262;101473;-82
2023/10/02 13:16:13;;;;;;;6.60;2.40;;;;;;;21.22;69.27;101232.95;106300;1259;99236;-81
2023/10/02 13:18:59;;;;;;;5.90;2.50;;;;;;;21.20;69.53;101232.86;106188;1262;99075;-82
2023/10/02 13:21:51;;;;;;;6.70;2.40;;;;;;;21.18;69.57;101232.86;106303;1263;98189;-82
2023/10/02 13:24:37;;;;;;;5.60;2.40;;;;;;;21.17;69.84;101230.61;106341;1262;97914;-82
2023/10/02 13:27:22;;;;;;;9.50;2.50;;;;;;;21.15;69.96;101229.00;106349;1259;102428;-83
2023/10/02 13:30:11;;;;;;;3.50;2.20;;;;;;;21.14;70.25;101227.73;106327;1260;100214;-83
2023/10/02 13:32:57;;;;;;;4.30;2.60;;;;;;;21.16;70.32;101222.64;106132;1260;97913;-82
2023/10/02 13:35:44;;;;;;;5.80;2.60;;;;;;;21.17;70.27;101219.71;106337;1263;97897;-82
2023/10/02 13:38:30;;;;;;;5.10;2.20;;;;;;;21.17;70.48;101220.21;106335;1260;98477;-81